createdAt,value
2024-01-03T00:00:58.407Z,3.68
2024-01-03T00:04:24.390Z,3.74
2024-01-03T00:07:27.848Z,3.65
2024-01-03T00:10:50.784Z,3.74
2024-01-03T00:14:34.605Z,3.68
2024-01-03T00:17:38.288Z,3.71
2024-01-03T00:20:41.814Z,3.64
2024-01-03T00:23:48.079Z,3.79
2024-01-03T00:26:51.180Z,3.85
2024-01-03T00:30:08.559Z,3.74
2024-01-03T00:33:12.554Z,3.74
2024-01-03T00:36:17.806Z,3.73
2024-01-03T00:39:28.187Z,3.71
2024-01-03T00:42:31.713Z,3.71
2024-01-03T00:45:34.939Z,3.66
2024-01-03T00:48:38.960Z,3.64
2024-01-03T00:51:44.185Z,3.57
2024-01-03T00:54:48.108Z,3.50
2024-01-03T00:57:51.271Z,3.60
2024-01-03T01:00:55.477Z,3.51
2024-01-03T01:03:58.888Z,3.52
2024-01-03T01:07:02.702Z,3.55
2024-01-03T01:10:06.195Z,3.63
2024-01-03T01:13:09.868Z,3.64
2024-01-03T01:16:13.021Z,3.62
2024-01-03T01:19:16.518Z,3.53
2024-01-03T01:22:19.728Z,3.51
2024-01-03T01:25:22.973Z,3.64
2024-01-03T01:28:26.229Z,3.55
2024-01-03T01:31:29.476Z,3.60
2024-01-03T01:34:32.174Z,3.55
2024-01-03T01:37:35.442Z,3.43
2024-01-03T01:40:38.147Z,3.56
2024-01-03T01:43:41.298Z,3.54
2024-01-03T01:46:44.300Z,3.55
2024-01-03T01:49:48.479Z,3.55
2024-01-03T01:52:51.347Z,3.53
2024-01-03T01:55:54.577Z,3.53
2024-01-03T01:58:58.351Z,3.44
2024-01-03T02:02:02.147Z,3.48
2024-01-03T02:05:05.062Z,3.49
2024-01-03T02:08:12.192Z,3.49
2024-01-03T02:11:15.631Z,3.48
2024-01-03T02:14:18.753Z,3.47
2024-01-03T02:17:23.114Z,3.50
2024-01-03T02:20:26.629Z,3.67
2024-01-03T02:23:30.453Z,3.64
2024-01-03T02:26:33.512Z,3.64
2024-01-03T02:29:36.443Z,3.63
2024-01-03T02:32:39.909Z,3.63
2024-01-03T02:35:42.813Z,3.59
2024-01-03T02:38:50.192Z,3.60
2024-01-03T02:41:53.183Z,3.71
2024-01-03T02:44:56.819Z,3.68
2024-01-03T02:47:59.834Z,3.66
2024-01-03T02:51:03.112Z,3.82
2024-01-03T02:54:05.872Z,3.77
2024-01-03T02:57:09.236Z,3.70
2024-01-03T03:00:12.872Z,3.61
2024-01-03T03:03:16.000Z,3.66
2024-01-03T03:06:18.801Z,3.65
2024-01-03T03:09:22.160Z,3.68
2024-01-03T03:12:24.990Z,3.68
2024-01-03T03:15:28.232Z,3.71
2024-01-03T03:18:31.300Z,3.83
2024-01-03T03:21:34.908Z,3.76
2024-01-03T03:24:37.648Z,3.72
2024-01-03T03:27:41.152Z,3.76
2024-01-03T03:30:43.863Z,3.79
2024-01-03T03:33:47.218Z,3.82
2024-01-03T03:36:49.907Z,3.72
2024-01-03T03:39:53.357Z,3.74
2024-01-03T03:42:56.871Z,3.68
2024-01-03T03:46:00.783Z,3.70
2024-01-03T03:49:04.453Z,3.75
2024-01-03T03:52:08.191Z,3.73
2024-01-03T03:55:13.584Z,3.82
2024-01-03T03:58:16.893Z,3.77
2024-01-03T04:01:19.964Z,3.73
2024-01-03T04:04:23.132Z,3.72
2024-01-03T04:07:25.706Z,3.78
2024-01-03T04:10:28.793Z,3.75
2024-01-03T04:13:31.722Z,3.79
2024-01-03T04:16:34.874Z,3.74
2024-01-03T04:19:39.245Z,3.72
2024-01-03T04:22:46.905Z,3.55
2024-01-03T04:25:49.354Z,3.60
2024-01-03T04:28:52.324Z,3.71
2024-01-03T04:31:55.065Z,3.72
2024-01-03T04:34:58.393Z,3.73
2024-01-03T04:38:04.414Z,3.71
2024-01-03T04:41:07.442Z,3.76
2024-01-03T04:44:09.911Z,3.65
2024-01-03T04:47:12.613Z,3.60
2024-01-03T04:50:15.313Z,3.65
2024-01-03T04:53:18.267Z,3.64
2024-01-03T04:56:23.011Z,3.64
2024-01-03T04:59:25.919Z,3.57
2024-01-03T05:02:28.576Z,3.43
2024-01-03T05:05:31.445Z,3.49
2024-01-03T05:08:34.212Z,3.59
2024-01-03T05:11:37.268Z,3.59
2024-01-03T05:14:39.994Z,3.61
2024-01-03T05:17:43.529Z,3.71
2024-01-03T05:20:46.379Z,3.72
2024-01-03T05:23:49.252Z,3.64
2024-01-03T05:26:52.355Z,3.65
2024-01-03T05:29:57.700Z,3.60
2024-01-03T05:33:02.157Z,3.66
2024-01-03T05:36:05.900Z,3.61
2024-01-03T05:39:08.563Z,3.70
2024-01-03T05:42:11.478Z,3.65
2024-01-03T05:45:14.026Z,3.63
2024-01-03T05:48:17.371Z,3.59
2024-01-03T05:51:20.225Z,3.58
2024-01-03T05:54:23.084Z,3.52
2024-01-03T05:57:25.800Z,3.50
2024-01-03T06:00:28.916Z,3.54
2024-01-03T06:03:31.534Z,3.59
2024-01-03T06:06:34.766Z,3.58
2024-01-03T06:09:37.991Z,3.66
2024-01-03T06:12:41.068Z,3.56
2024-01-03T06:15:43.811Z,3.62
2024-01-03T06:18:46.880Z,3.72
2024-01-03T06:21:49.756Z,3.61
2024-01-03T06:24:52.708Z,3.70
2024-01-03T06:27:55.547Z,3.71
2024-01-03T06:30:58.509Z,3.77
2024-01-03T06:34:01.126Z,3.90
2024-01-03T06:37:04.293Z,3.83
2024-01-03T06:40:07.475Z,3.75
2024-01-03T06:43:10.422Z,3.74
2024-01-03T06:46:13.006Z,3.74
2024-01-03T06:49:16.447Z,3.80
2024-01-03T06:52:19.536Z,3.85
2024-01-03T06:55:22.502Z,3.83
2024-01-03T06:58:25.253Z,3.73
2024-01-03T07:01:28.269Z,3.70
2024-01-03T07:04:30.989Z,3.70
2024-01-03T07:07:34.025Z,3.59
2024-01-03T07:10:36.662Z,3.55
2024-01-03T07:13:39.585Z,3.54
2024-01-03T07:16:42.152Z,3.46
2024-01-03T07:19:45.508Z,3.54
2024-01-03T07:22:48.132Z,3.50
2024-01-03T07:25:51.097Z,3.49
2024-01-03T07:28:54.004Z,3.46
2024-01-03T07:31:57.176Z,3.45
2024-01-03T07:34:59.854Z,3.43
2024-01-03T07:38:02.870Z,3.30
2024-01-03T07:41:05.630Z,3.35
2024-01-03T07:44:08.635Z,3.36
2024-01-03T07:47:12.421Z,3.38
2024-01-03T07:50:15.663Z,3.32
2024-01-03T07:53:18.431Z,3.21
2024-01-03T07:56:21.612Z,3.39
2024-01-03T07:59:25.110Z,3.42
2024-01-03T08:02:28.798Z,3.44
2024-01-03T08:05:32.412Z,3.40
2024-01-03T08:08:36.139Z,3.42
2024-01-03T08:11:39.221Z,3.41
2024-01-03T08:14:42.824Z,3.48
2024-01-03T08:17:46.271Z,3.49
2024-01-03T08:20:50.086Z,3.47
2024-01-03T08:23:53.905Z,3.36
2024-01-03T08:26:59.259Z,3.32
2024-01-03T08:30:02.540Z,3.35
2024-01-03T08:33:06.418Z,3.27
2024-01-03T08:36:12.909Z,3.19
2024-01-03T08:39:16.554Z,3.24
2024-01-03T08:42:19.739Z,3.15
2024-01-03T08:45:23.270Z,3.19
2024-01-03T08:48:26.384Z,3.24
2024-01-03T08:51:30.182Z,3.23
2024-01-03T08:54:33.275Z,3.25
2024-01-03T08:57:36.899Z,3.32
2024-01-03T09:00:40.503Z,3.35
2024-01-03T09:03:45.158Z,3.17
2024-01-03T09:06:49.475Z,3.21
2024-01-03T09:09:52.519Z,3.21
2024-01-03T09:12:55.564Z,3.21
2024-01-03T09:15:58.537Z,3.14
2024-01-03T09:19:01.630Z,3.27
2024-01-03T09:22:05.184Z,3.29
2024-01-03T09:25:08.636Z,3.37
2024-01-03T09:28:12.608Z,3.33
2024-01-03T09:31:15.802Z,3.35
2024-01-03T09:34:19.893Z,3.35
2024-01-03T09:37:22.893Z,3.38
2024-01-03T09:40:26.760Z,3.32
2024-01-03T09:43:29.901Z,3.40
2024-01-03T09:46:33.607Z,3.40
2024-01-03T09:49:36.824Z,3.40
2024-01-03T09:52:41.718Z,3.38
2024-01-03T09:55:45.483Z,3.38
2024-01-03T09:58:48.674Z,3.32
2024-01-03T10:01:56.705Z,3.40
2024-01-03T10:05:00.497Z,3.38
2024-01-03T10:08:16.572Z,3.41
2024-01-03T10:11:24.276Z,3.32
2024-01-03T10:14:28.732Z,3.32
2024-01-03T10:17:33.975Z,3.39
2024-01-03T10:20:37.347Z,3.40
2024-01-03T10:23:40.763Z,3.48
2024-01-03T10:26:43.743Z,3.39
2024-01-03T10:29:48.901Z,3.49
2024-01-03T10:33:00.410Z,3.54
2024-01-03T10:36:11.745Z,3.47
2024-01-03T10:39:19.344Z,3.48
2024-01-03T10:42:23.628Z,3.52
2024-01-03T10:45:27.424Z,3.49
2024-01-03T10:48:31.868Z,3.51
2024-01-03T10:51:44.122Z,3.46
2024-01-03T10:54:51.984Z,3.40
2024-01-03T10:58:00.428Z,3.40
2024-01-03T11:01:28.170Z,3.40
2024-01-03T11:04:36.792Z,3.44
2024-01-03T11:07:48.394Z,3.56
2024-01-03T11:10:56.319Z,3.65
2024-01-03T11:14:01.904Z,3.69
2024-01-03T11:17:06.790Z,3.81
2024-01-03T11:20:10.875Z,3.90
2024-01-03T11:23:32.775Z,3.85
2024-01-03T11:27:00.945Z,4.02
2024-01-03T11:30:04.721Z,3.83
2024-01-03T11:33:27.811Z,3.95
2024-01-03T11:36:57.620Z,4.00
2024-01-03T11:40:00.825Z,3.98
2024-01-03T11:43:06.710Z,3.96
2024-01-03T11:46:14.348Z,3.93
2024-01-03T11:49:22.925Z,3.98
2024-01-03T11:52:27.000Z,3.86
2024-01-03T11:55:30.741Z,3.89
2024-01-03T11:58:33.991Z,3.93
2024-01-03T12:01:37.608Z,3.87
2024-01-03T12:04:43.128Z,3.97
2024-01-03T12:07:48.681Z,3.96
2024-01-03T12:10:52.663Z,3.99
2024-01-03T12:13:55.727Z,4.09
2024-01-03T12:16:58.260Z,4.05
2024-01-03T12:20:09.381Z,4.07
2024-01-03T12:23:15.257Z,4.20
2024-01-03T12:26:18.301Z,4.25
2024-01-03T12:29:21.084Z,4.28
2024-01-03T12:32:24.552Z,4.28
2024-01-03T12:35:27.376Z,4.28
2024-01-03T12:38:30.494Z,4.32
2024-01-03T12:41:33.159Z,4.41
2024-01-03T12:44:40.498Z,4.45
2024-01-03T12:47:43.382Z,4.43
2024-01-03T12:50:47.946Z,4.36
2024-01-03T12:53:50.934Z,4.34
2024-01-03T12:56:54.275Z,4.22
2024-01-03T12:59:57.605Z,4.23
2024-01-03T13:03:01.080Z,4.16
2024-01-03T13:06:04.389Z,4.28
2024-01-03T13:09:08.035Z,4.31
2024-01-03T13:12:11.649Z,4.37
2024-01-03T13:15:15.026Z,4.40
2024-01-03T13:18:18.127Z,4.37
2024-01-03T13:21:21.435Z,4.40
2024-01-03T13:24:24.898Z,4.44
2024-01-03T13:27:28.105Z,4.47
2024-01-03T13:30:31.023Z,4.46
2024-01-03T13:33:34.573Z,4.42
2024-01-03T13:36:38.834Z,4.35
2024-01-03T13:39:43.800Z,4.32
2024-01-03T13:42:47.899Z,4.33
2024-01-03T13:45:51.190Z,4.31
2024-01-03T13:48:54.534Z,4.32
2024-01-03T13:51:58.877Z,4.32
2024-01-03T13:55:02.621Z,4.32
2024-01-03T13:58:06.350Z,4.36
2024-01-03T14:01:10.607Z,4.32
2024-01-03T14:04:15.018Z,4.32
2024-01-03T14:07:19.042Z,4.35
2024-01-03T14:10:22.483Z,4.38
2024-01-03T14:13:28.748Z,4.33
2024-01-03T14:16:31.780Z,4.37
2024-01-03T14:19:34.852Z,4.41
2024-01-03T14:22:37.984Z,4.44
2024-01-03T14:25:44.011Z,4.48
2024-01-03T14:28:47.095Z,4.44
2024-01-03T14:31:49.655Z,4.37
2024-01-03T14:34:52.789Z,4.41
2024-01-03T14:37:55.605Z,4.32
2024-01-03T14:40:58.637Z,4.28
2024-01-03T14:44:05.942Z,4.29
2024-01-03T14:47:09.199Z,4.34
2024-01-03T14:50:16.340Z,4.41
2024-01-03T14:53:20.496Z,4.43
2024-01-03T14:56:23.211Z,4.41
2024-01-03T14:59:26.912Z,4.37
2024-01-03T15:02:31.365Z,4.50
2024-01-03T15:05:36.469Z,4.57
2024-01-03T15:08:39.623Z,4.68
2024-01-03T15:11:42.707Z,4.61
2024-01-03T15:14:46.014Z,4.61
2024-01-03T15:17:51.920Z,4.67
2024-01-03T15:20:54.761Z,4.66
2024-01-03T15:23:58.050Z,4.69
2024-01-03T15:27:01.245Z,4.72
2024-01-03T15:30:05.366Z,4.67
2024-01-03T15:33:10.714Z,4.63
2024-01-03T15:36:14.176Z,4.61
2024-01-03T15:39:17.156Z,4.69
2024-01-03T15:42:20.430Z,4.72
2024-01-03T15:45:24.247Z,4.66
2024-01-03T15:48:27.491Z,4.70
2024-01-03T15:51:30.098Z,4.71
2024-01-03T15:54:42.022Z,4.70
2024-01-03T15:57:49.665Z,4.74
2024-01-03T16:00:52.570Z,4.74
2024-01-03T16:03:55.446Z,4.82
2024-01-03T16:06:58.973Z,4.83
2024-01-03T16:10:01.828Z,4.75
2024-01-03T16:13:05.049Z,4.79
2024-01-03T16:16:09.994Z,4.73
2024-01-03T16:19:13.550Z,4.76
2024-01-03T16:22:16.520Z,4.83
2024-01-03T16:25:19.610Z,4.81
2024-01-03T16:28:22.239Z,4.77
2024-01-03T16:31:25.273Z,4.84
2024-01-03T16:34:29.568Z,4.84
2024-01-03T16:37:33.392Z,4.76
2024-01-03T16:40:36.181Z,4.78
2024-01-03T16:43:39.473Z,4.69
2024-01-03T16:46:42.187Z,4.73
2024-01-03T16:49:46.304Z,4.72
2024-01-03T16:52:49.568Z,4.77
2024-01-03T16:55:52.604Z,4.69
2024-01-03T16:58:55.262Z,4.65
2024-01-03T17:01:58.240Z,4.66
2024-01-03T17:05:01.481Z,4.46
2024-01-03T17:08:06.038Z,4.46
2024-01-03T17:11:11.952Z,4.28
2024-01-03T17:14:18.691Z,4.26
2024-01-03T17:17:21.686Z,4.29
2024-01-03T17:20:24.653Z,4.22
2024-01-03T17:23:27.217Z,4.17
2024-01-03T17:26:37.569Z,4.23
2024-01-03T17:29:40.503Z,4.33
2024-01-03T17:32:43.581Z,4.36
2024-01-03T17:35:46.354Z,4.33
2024-01-03T17:38:49.675Z,4.18
2024-01-03T17:41:54.257Z,4.25
2024-01-03T17:44:57.470Z,4.42
2024-01-03T17:48:00.214Z,4.45
2024-01-03T17:51:05.128Z,4.48
2024-01-03T17:54:08.012Z,4.50
2024-01-03T17:57:11.219Z,4.61
2024-01-03T18:00:14.637Z,4.50
2024-01-03T18:03:18.194Z,4.57
2024-01-03T18:06:21.427Z,4.61
2024-01-03T18:09:26.243Z,4.66
2024-01-03T18:12:29.640Z,4.66
2024-01-03T18:15:34.675Z,4.48
2024-01-03T18:18:37.686Z,4.46
2024-01-03T18:21:41.415Z,4.53
2024-01-03T18:24:46.487Z,4.40
2024-01-03T18:27:50.890Z,4.34
2024-01-03T18:30:55.102Z,4.13
2024-01-03T18:33:58.733Z,4.22
2024-01-03T18:37:05.009Z,4.04
2024-01-03T18:40:13.549Z,3.99
2024-01-03T18:43:16.889Z,4.07
2024-01-03T18:46:19.982Z,4.15
2024-01-03T18:49:23.292Z,4.17
2024-01-03T18:52:27.139Z,4.26
2024-01-03T18:55:30.056Z,4.20
2024-01-03T18:58:33.214Z,4.28
2024-01-03T19:01:36.423Z,4.29
2024-01-03T19:04:42.814Z,4.33
2024-01-03T19:07:45.850Z,4.37
2024-01-03T19:10:48.976Z,4.42
2024-01-03T19:13:51.697Z,4.48
2024-01-03T19:16:59.298Z,4.53
2024-01-03T19:20:04.297Z,4.48
2024-01-03T19:23:07.977Z,4.55
2024-01-03T19:26:12.006Z,4.56
2024-01-03T19:29:15.483Z,4.60
2024-01-03T19:32:18.688Z,4.57
2024-01-03T19:35:22.223Z,4.51
2024-01-03T19:38:27.327Z,4.49
2024-01-03T19:41:37.571Z,4.43
2024-01-03T19:44:41.279Z,4.38
2024-01-03T19:47:45.907Z,4.34
2024-01-03T19:50:49.179Z,4.30
2024-01-03T19:53:52.830Z,4.22
2024-01-03T19:56:58.678Z,4.08
2024-01-03T20:00:02.641Z,4.01
2024-01-03T20:03:07.506Z,4.04
2024-01-03T20:06:26.079Z,4.10
2024-01-03T20:09:28.849Z,4.04
2024-01-03T20:12:32.266Z,3.99
2024-01-03T20:15:34.749Z,3.76
2024-01-03T20:18:37.717Z,3.83
2024-01-03T20:21:45.651Z,3.82
2024-01-03T20:24:48.721Z,3.89
2024-01-03T20:27:53.813Z,3.88
2024-01-03T20:30:56.727Z,3.77
2024-01-03T20:34:00.358Z,3.87
2024-01-03T20:37:03.720Z,3.96
2024-01-03T20:40:11.203Z,4.01
2024-01-03T20:43:14.287Z,4.04
2024-01-03T20:46:17.056Z,4.07
2024-01-03T20:49:20.745Z,4.04
2024-01-03T20:52:23.869Z,4.03
2024-01-03T20:55:27.462Z,4.03
2024-01-03T20:58:31.469Z,3.95
2024-01-03T21:01:34.841Z,3.90
2024-01-03T21:04:39.244Z,3.92
2024-01-03T21:07:42.230Z,3.98
2024-01-03T21:10:44.702Z,4.03
2024-01-03T21:13:48.701Z,4.08
2024-01-03T21:16:51.318Z,4.09
2024-01-03T21:19:54.627Z,4.07
2024-01-03T21:22:57.099Z,4.17
2024-01-03T21:26:02.795Z,4.13
2024-01-03T21:29:28.396Z,4.13
2024-01-03T21:32:30.985Z,4.12
2024-01-03T21:35:35.241Z,4.18
2024-01-03T21:38:42.061Z,4.21
2024-01-03T21:41:47.228Z,4.23
2024-01-03T21:44:51.959Z,4.32
2024-01-03T21:47:54.635Z,4.29
2024-01-03T21:50:57.745Z,4.28
2024-01-03T21:54:00.383Z,4.30
2024-01-03T21:57:03.654Z,4.30
2024-01-03T22:00:06.974Z,4.28
2024-01-03T22:03:14.509Z,4.32
2024-01-03T22:06:21.007Z,4.28
2024-01-03T22:09:23.957Z,4.25
2024-01-03T22:12:26.589Z,4.32
2024-01-03T22:15:29.413Z,4.28
2024-01-03T22:18:31.980Z,4.21
2024-01-03T22:21:35.359Z,4.27
2024-01-03T22:24:38.015Z,4.26
2024-01-03T22:27:40.921Z,4.21
2024-01-03T22:30:43.515Z,4.26
2024-01-03T22:33:46.912Z,4.33
2024-01-03T22:36:50.069Z,4.40
2024-01-03T22:39:53.010Z,4.39
2024-01-03T22:42:56.078Z,4.46
2024-01-03T22:45:59.033Z,4.39
2024-01-03T22:49:02.224Z,4.45
2024-01-03T22:52:06.509Z,4.44
2024-01-03T22:55:09.313Z,4.49
2024-01-03T22:58:12.093Z,4.50
2024-01-03T23:01:14.571Z,4.46
2024-01-03T23:04:17.913Z,4.48
2024-01-03T23:07:20.688Z,4.47
2024-01-03T23:10:24.129Z,4.46
2024-01-03T23:13:26.656Z,4.46
2024-01-03T23:16:29.507Z,4.51
2024-01-03T23:19:32.214Z,4.52
2024-01-03T23:22:35.753Z,4.51
2024-01-03T23:25:38.462Z,4.51
2024-01-03T23:28:41.871Z,4.57
2024-01-03T23:31:44.639Z,4.57
2024-01-03T23:34:47.664Z,4.61
2024-01-03T23:37:50.441Z,4.57
2024-01-03T23:40:53.715Z,4.62
2024-01-03T23:43:56.584Z,4.63
2024-01-03T23:47:00.276Z,4.61
2024-01-03T23:50:02.922Z,4.51
2024-01-03T23:53:06.584Z,4.54
2024-01-03T23:56:09.463Z,4.43
2024-01-03T23:59:12.430Z,4.45
